• Join FlightAware (Why Join?)
  • Login
  • US Flag 
01:30PM EDT


 

Airport Tracker/Info


-or-


 

Live Flight TrackerFlight Track Log ✈ LIA565 ✈ 19-May-2013 ✈ TDPD / DOM - TBPB / BGI

Flight Track Log - Related Links

Times and Time Zones

All times are in EDT time to prevent confusion due to time zone crossing. See the LIA565 flight status page for this flight to view local times or setup timezone preferences in your user account.

Time Position Orientation Groundspeed Altitude Reporting Facility
EDT Latitude Longitude Course Direction KTS MPH feet Rate Location/Type
05:07PM 15.5129 -61.2747 144° Southeast  Level Estimated
05:08PM 15.4852 -61.2542 144° Southeast  Level Estimated
05:09PM 15.4575 -61.2337 144° Southeast  Level Estimated
05:10PM 15.4298 -61.2131 144° Southeast  Level Estimated
05:11PM 15.4021 -61.1926 144° Southeast  Level Estimated
05:12PM 15.3744 -61.1721 144° Southeast  Level Estimated
05:13PM 15.3467 -61.1516 144° Southeast  Level Estimated
05:14PM 15.3190 -61.1312 144° Southeast  Level Estimated
05:15PM 15.2913 -61.1107 145° Southeast  Level Estimated
05:16PM 15.2636 -61.0902 145° Southeast  Level Estimated
05:17PM 15.2359 -61.0697 145° Southeast  Level Estimated
05:18PM 15.2082 -61.0493 145° Southeast  Level Estimated
05:19PM 15.1805 -61.0288 145° Southeast  Level Estimated
05:20PM 15.1528 -61.0084 145° Southeast  Level Estimated
05:21PM 15.1251 -60.9879 145° Southeast  Level Estimated
05:22PM 15.0974 -60.9675 145° Southeast  Level Estimated
05:23PM 15.0696 -60.9470 145° Southeast  Level Estimated
05:24PM 15.0419 -60.9266 145° Southeast  Level Estimated
05:25PM 15.0142 -60.9062 145° Southeast  Level Estimated
05:26PM 14.9865 -60.8857 145° Southeast  Level Estimated
05:27PM 14.9588 -60.8653 145° Southeast  Level Estimated
05:28PM 14.9310 -60.8449 145° Southeast  Level Estimated
05:29PM 14.9033 -60.8245 145° Southeast  Level Estimated
05:30PM 14.8756 -60.8041 145° Southeast  Level Estimated
05:31PM 14.8478 -60.7837 145° Southeast  Level Estimated
05:32PM 14.8201 -60.7633 145° Southeast  Level Estimated
05:33PM 14.7924 -60.7429 145° Southeast  Level Estimated
05:34PM 14.7646 -60.7225 145° Southeast  Level Estimated
05:35PM 14.7369 -60.7022 145° Southeast  Level Estimated
05:36PM 14.7092 -60.6818 145° Southeast  Level Estimated
05:37PM 14.6814 -60.6614 145° Southeast  Level Estimated
05:38PM 14.6537 -60.6411 145° Southeast  Level Estimated
05:39PM 14.6259 -60.6207 145° Southeast  Level Estimated
05:40PM 14.5982 -60.6004 145° Southeast  Level Estimated
05:41PM 14.5704 -60.5800 145° Southeast  Level Estimated
05:42PM 14.5427 -60.5597 145° Southeast  Level Estimated
05:43PM 14.5149 -60.5394 145° Southeast  Level Estimated
05:44PM 14.4872 -60.5190 145° Southeast  Level Estimated
05:45PM 14.4594 -60.4987 145° Southeast  Level Estimated
05:46PM 14.4317 -60.4784 145° Southeast  Level Estimated
05:47PM 14.4039 -60.4581 145° Southeast  Level Estimated
05:48PM 14.3761 -60.4378 145° Southeast  Level Estimated
05:49PM 14.3484 -60.4175 145° Southeast  Level Estimated
05:50PM 14.3206 -60.3972 145° Southeast  Level Estimated
05:51PM 14.2928 -60.3769 145° Southeast  Level Estimated
05:52PM 14.2651 -60.3566 145° Southeast  Level Estimated
05:53PM 14.2373 -60.3363 145° Southeast  Level Estimated
05:54PM 14.2095 -60.3160 145° Southeast  Level Estimated
05:55PM 14.1818 -60.2958 145° Southeast  Level Estimated
05:56PM 14.1540 -60.2755 145° Southeast  Level Estimated
05:57PM 14.1262 -60.2552 145° Southeast  Level Estimated
05:58PM 14.0984 -60.2350 145° Southeast  Level Estimated
05:59PM 14.0707 -60.2147 145° Southeast  Level Estimated
06:00PM 14.0429 -60.1945 145° Southeast  Level Estimated
06:01PM 14.0151 -60.1742 145° Southeast  Level Estimated
06:02PM 13.9873 -60.1540 145° Southeast  Level Estimated
06:03PM 13.9595 -60.1338 145° Southeast  Level Estimated
06:04PM 13.9317 -60.1135 145° Southeast  Level Estimated
06:05PM 13.9039 -60.0933 145° Southeast  Level Estimated
06:06PM 13.8762 -60.0731 145° Southeast  Level Estimated
06:07PM 13.8484 -60.0529 145° Southeast  Level Estimated
06:08PM 13.8206 -60.0327 145° Southeast  Level Estimated
06:09PM 13.7928 -60.0125 145° Southeast  Level Estimated
06:10PM 13.7650 -59.9922 145° Southeast  Level Estimated
06:11PM 13.7372 -59.9720 145° Southeast  Level Estimated
06:12PM 13.7094 -59.9519 145° Southeast  Level Estimated
06:13PM 13.6816 -59.9317 145° Southeast  Level Estimated
06:14PM 13.6538 -59.9115 145° Southeast  Level Estimated
06:15PM 13.6259 -59.8913 145° Southeast  Level Estimated
06:16PM 13.5981 -59.8711 145° Southeast  Level Estimated
06:17PM 13.5703 -59.8510 145° Southeast  Level Estimated
06:18PM 13.5425 -59.8308 145° Southeast  Level Estimated
06:19PM 13.5147 -59.8106 145° Southeast  Level Estimated
06:20PM 13.4869 -59.7905 145° Southeast  Level Estimated
06:21PM 13.4591 -59.7704 145° Southeast  Level Estimated
06:22PM 13.4313 -59.7502 145° Southeast  Level Estimated
06:23PM 13.4034 -59.7301 145° Southeast  Level Estimated
06:24PM 13.3756 -59.7099 145° Southeast  Level Estimated
06:25PM 13.3478 -59.6898 145° Southeast  Level Estimated
06:26PM 13.3200 -59.6697 145° Southeast  Level Estimated
06:27PM 13.2921 -59.6496 145° Southeast  Level Estimated
06:28PM 13.2643 -59.6294 145° Southeast  Level Estimated
06:29PM 13.2365 -59.6093 145° Southeast  Level Estimated
06:30PM 13.2087 -59.5892 145° Southeast  Level Estimated
06:31PM 13.1808 -59.5691 145° Southeast  Level Estimated
06:32PM 13.1530 -59.5490 145° Southeast  Level Estimated
06:33PM 13.1252 -59.5289 145° Southeast  Level Estimated
06:34PM 13.0973 -59.5088 145° Southeast  Level Estimated
06:35PM 13.0746 -59.4925 145° Southeast  Level Estimated
06:36PM 13.0746 -59.4925 52° Northeast  Level Estimated
06:37PM 13.0746 -59.4925 52° Northeast  Level Estimated
06:38PM 13.0746 -59.4925 52° Northeast  Level Estimated
06:39PM 13.0746 -59.4925 52° Northeast  Level Estimated
06:40PM 13.0746 -59.4925 52° Northeast  Level Estimated
06:41PM 13.0746 -59.4925 52° Northeast  Level Estimated
06:42PM 13.0746 -59.4925 52° Northeast  Level Estimated
06:43PM 13.0746 -59.4925 52° Northeast  Level Estimated
06:44PM 13.0746 -59.4925 52° Northeast  Level Estimated
06:45PM 13.0746 -59.4925 52° Northeast  Level Estimated
06:46PM 13.0746 -59.4925 52° Northeast  Level Estimated
06:47PM 13.0746 -59.4925 52° Northeast  Level Estimated
06:48PM 13.0746 -59.4925 52° Northeast  Level Estimated
06:49PM 13.0746 -59.4925 52° Northeast  Level Estimated
06:50PM 13.0746 -59.4925 52° Northeast  Level Estimated
06:51PM 13.0746 -59.4925 52° Northeast  Level Estimated